Time;durP1;ratioP1;P1;durP2;ratioP2;P2;SDS_P1;SDS_P2;PMS_P1;PMS_P2;Temp;Humidity;BMP_temperature;BMP_pressure;BME280_temperature;BME280_humidity;BME280_pressure;Samples;Min_cycle;Max_cycle;Signal;HPM_P1;HPM_P2
2024/01/02 00:00:20;;;;;;;;;;;11.30;99.90;;;;;;4996971;28;19913;-94
2024/01/02 00:02:46;;;;;;;;;;;11.30;99.90;;;;;;4995025;28;19973;-96
2024/01/02 00:05:11;;;;;;;;;;;11.40;99.90;;;;;;5001460;28;20007;-93
2024/01/02 00:07:37;;;;;;;;;;;11.40;99.90;;;;;;4998587;28;19988;-92
2024/01/02 00:10:03;;;;;;;;;;;11.40;99.90;;;;;;4994186;28;19979;-95
2024/01/02 00:12:28;;;;;;;;;;;11.40;99.90;;;;;;4999612;28;19917;-92
2024/01/02 00:15:03;;;;;;;;;;;11.40;99.90;;;;;;4996954;28;19910;-94
2024/01/02 00:17:28;;;;;;;;;;;11.40;99.90;;;;;;4998418;28;19913;-94
2024/01/02 00:19:54;;;;;;;;;;;11.50;99.90;;;;;;4996851;28;20630;-92
2024/01/02 00:22:20;;;;;;;;;;;11.50;99.90;;;;;;4998331;28;20293;-93
2024/01/02 00:24:45;;;;;;;;;;;11.50;99.90;;;;;;4998379;28;19957;-92
2024/01/02 00:27:11;;;;;;;;;;;11.50;99.90;;;;;;5000821;28;19935;-93
2024/01/02 00:29:36;;;;;;;;;;;11.50;99.90;;;;;;4996217;28;19925;-92
2024/01/02 00:32:05;;;;;;;;;;;11.50;99.90;;;;;;4996046;28;19914;-93
2024/01/02 00:34:35;;;;;;;;;;;11.50;99.90;;;;;;4994696;28;20011;-92
2024/01/02 00:37:10;;;;;;;;;;;11.60;99.90;;;;;;4996958;28;19918;-93
2024/01/02 00:39:38;;;;;;;;;;;11.60;99.90;;;;;;4995388;28;20008;-92
2024/01/02 00:42:11;;;;;;;;;;;11.60;99.90;;;;;;4994052;28;19964;-91
2024/01/02 00:44:37;;;;;;;;;;;11.70;99.90;;;;;;4995197;28;19917;-92
2024/01/02 00:47:04;;;;;;;;;;;11.70;99.90;;;;;;4981596;28;19952;-94
2024/01/02 00:49:29;;;;;;;;;;;11.70;99.90;;;;;;4999308;28;20373;-91
2024/01/02 00:51:57;;;;;;;;;;;11.70;99.90;;;;;;5001899;28;19917;-93
2024/01/02 00:54:23;;;;;;;;;;;11.70;99.90;;;;;;4992947;28;19910;-92
2024/01/02 00:56:48;;;;;;;;;;;11.80;99.90;;;;;;5002267;28;19909;-91
2024/01/02 00:59:14;;;;;;;;;;;11.80;99.90;;;;;;4995139;28;19964;-93
2024/01/02 01:01:40;;;;;;;;;;;11.80;99.90;;;;;;4995882;28;19909;-93
2024/01/02 01:04:07;;;;;;;;;;;11.80;99.90;;;;;;4999613;28;19909;-93
2024/01/02 01:06:33;;;;;;;;;;;11.80;99.90;;;;;;4995266;28;19948;-91
2024/01/02 01:08:59;;;;;;;;;;;11.80;99.90;;;;;;4992808;28;19914;-94
2024/01/02 01:11:24;;;;;;;;;;;11.80;99.90;;;;;;4989064;28;20246;-92
2024/01/02 01:13:50;;;;;;;;;;;11.90;99.90;;;;;;4994928;28;19925;-93
2024/01/02 01:16:15;;;;;;;;;;;11.90;99.90;;;;;;4994494;28;19909;-91
2024/01/02 01:18:41;;;;;;;;;;;11.80;99.90;;;;;;5009565;28;20384;-91
2024/01/02 01:21:06;;;;;;;;;;;11.80;99.90;;;;;;5012194;28;19910;-92
2024/01/02 01:23:32;;;;;;;;;;;11.80;99.90;;;;;;4998984;28;19924;-94
2024/01/02 01:25:57;;;;;;;;;;;11.80;99.90;;;;;;4994050;28;19972;-93
2024/01/02 01:28:23;;;;;;;;;;;11.80;99.90;;;;;;4989836;28;19913;-92
2024/01/02 01:30:49;;;;;;;;;;;11.90;99.90;;;;;;4995368;28;20394;-93
2024/01/02 01:33:14;;;;;;;;;;;11.80;99.90;;;;;;4989026;28;19909;-92
2024/01/02 01:35:40;;;;;;;;;;;11.80;99.90;;;;;;4993960;28;20420;-93
2024/01/02 01:38:06;;;;;;;;;;;11.80;99.90;;;;;;4992037;28;19909;-94
2024/01/02 01:40:31;;;;;;;;;;;11.80;99.90;;;;;;4995663;28;19920;-93
2024/01/02 01:42:57;;;;;;;;;;;11.80;99.90;;;;;;4993043;28;19972;-93
2024/01/02 01:45:22;;;;;;;;;;;11.80;99.90;;;;;;4991379;28;19944;-92
2024/01/02 01:47:48;;;;;;;;;;;11.70;99.90;;;;;;4989080;28;19921;-93
2024/01/02 01:50:14;;;;;;;;;;;11.70;99.90;;;;;;4991213;28;19921;-91
2024/01/02 01:52:40;;;;;;;;;;;11.70;99.90;;;;;;4998500;28;20218;-92
2024/01/02 01:55:09;;;;;;;;;;;11.70;99.90;;;;;;5002728;28;19917;-91
2024/01/02 01:57:35;;;;;;;;;;;11.70;99.90;;;;;;4995418;28;19917;-92
2024/01/02 02:00:00;;;;;;;;;;;11.70;99.90;;;;;;4997848;28;20551;-93
2024/01/02 02:02:26;;;;;;;;;;;11.70;99.90;;;;;;4995586;28;19917;-91
2024/01/02 02:04:55;;;;;;;;;;;11.60;99.90;;;;;;5001157;28;19936;-93
2024/01/02 02:07:21;;;;;;;;;;;11.60;99.90;;;;;;5000954;28;19917;-91
2024/01/02 02:09:49;;;;;;;;;;;11.60;99.90;;;;;;4994799;28;20456;-93
2024/01/02 02:12:17;;;;;;;;;;;11.60;99.90;;;;;;4993826;28;19955;-92
2024/01/02 02:14:42;;;;;;;;;;;11.60;99.90;;;;;;4996752;28;19932;-91
2024/01/02 02:17:08;;;;;;;;;;;11.60;99.90;;;;;;4995604;28;20354;-91
2024/01/02 02:19:33;;;;;;;;;;;11.60;99.90;;;;;;4993392;28;19928;-93
2024/01/02 02:22:00;;;;;;;;;;;11.60;99.90;;;;;;4989841;28;19949;-92
2024/01/02 02:24:26;;;;;;;;;;;11.60;99.90;;;;;;4996363;28;19961;-91
2024/01/02 02:26:54;;;;;;;;;;;11.50;99.90;;;;;;4992347;28;19920;-91
2024/01/02 02:29:23;;;;;;;;;;;11.50;99.90;;;;;;4994452;28;19913;-91
2024/01/02 02:31:48;;;;;;;;;;;11.50;99.90;;;;;;4991143;28;19971;-90
2024/01/02 02:35:20;;;;;;;;;;;11.50;99.90;;;;;;4998443;28;19960;-91
2024/01/02 02:37:31;;;;;;;;;;;11.50;99.90;;;;;;4989075;28;19921;-92
2024/01/02 02:39:59;;;;;;;;;;;11.50;99.90;;;;;;4996902;28;19955;-91
2024/01/02 02:42:24;;;;;;;;;;;11.40;99.90;;;;;;4994857;28;19913;-90
2024/01/02 02:44:50;;;;;;;;;;;11.40;99.90;;;;;;4991147;28;19917;-92
2024/01/02 02:47:15;;;;;;;;;;;11.40;99.90;;;;;;4991831;28;19917;-92
2024/01/02 02:49:43;;;;;;;;;;;11.40;99.90;;;;;;4991913;28;20421;-93
2024/01/02 02:52:08;;;;;;;;;;;11.40;99.90;;;;;;4989741;28;19914;-94
2024/01/02 02:54:34;;;;;;;;;;;11.40;99.90;;;;;;4998649;28;19924;-92
2024/01/02 02:57:00;;;;;;;;;;;11.30;99.90;;;;;;4990532;28;19973;-91
2024/01/02 02:59:26;;;;;;;;;;;11.30;99.90;;;;;;4992864;28;19917;-90
2024/01/02 03:01:51;;;;;;;;;;;11.30;99.90;;;;;;4983648;28;19915;-89
2024/01/02 03:04:17;;;;;;;;;;;11.30;99.90;;;;;;4987806;28;19917;-90
2024/01/02 03:06:48;;;;;;;;;;;11.30;99.90;;;;;;4990392;28;19976;-91
2024/01/02 03:09:14;;;;;;;;;;;11.30;99.90;;;;;;4993455;28;19917;-90
2024/01/02 03:11:39;;;;;;;;;;;11.30;99.90;;;;;;4997126;28;20066;-92
2024/01/02 03:14:05;;;;;;;;;;;11.40;99.90;;;;;;4992745;28;19910;-92
2024/01/02 03:16:30;;;;;;;;;;;11.30;99.90;;;;;;4992918;28;19918;-91
2024/01/02 03:18:56;;;;;;;;;;;11.30;99.90;;;;;;4987244;28;20269;-90
2024/01/02 03:21:27;;;;;;;;;;;11.30;99.90;;;;;;4986814;28;20323;-92
2024/01/02 03:23:53;;;;;;;;;;;11.30;99.90;;;;;;4989329;28;19972;-91
2024/01/02 03:26:19;;;;;;;;;;;11.30;99.90;;;;;;4990722;28;20427;-93
2024/01/02 03:28:44;;;;;;;;;;;11.30;99.90;;;;;;4984990;28;19910;-91
2024/01/02 03:31:10;;;;;;;;;;;11.40;99.90;;;;;;4993142;28;19917;-92
2024/01/02 03:33:35;;;;;;;;;;;11.30;99.90;;;;;;4980058;28;19925;-91
2024/01/02 03:36:01;;;;;;;;;;;11.30;99.90;;;;;;4989457;28;19917;-91
2024/01/02 03:38:26;;;;;;;;;;;11.30;99.90;;;;;;4990718;28;19922;-91
2024/01/02 03:40:52;;;;;;;;;;;11.30;99.90;;;;;;4995054;28;19917;-90
2024/01/02 03:43:17;;;;;;;;;;;11.30;99.90;;;;;;4997643;28;19910;-91
2024/01/02 03:45:43;;;;;;;;;;;11.30;99.90;;;;;;4989636;28;21058;-91
2024/01/02 03:48:08;;;;;;;;;;;11.30;99.90;;;;;;4991209;28;19912;-92
2024/01/02 03:50:36;;;;;;;;;;;11.30;99.90;;;;;;4986927;28;20005;-91
2024/01/02 03:53:02;;;;;;;;;;;11.30;99.90;;;;;;4990405;28;19976;-90
2024/01/02 03:55:27;;;;;;;;;;;11.20;99.90;;;;;;4997744;28;20408;-92
2024/01/02 03:57:53;;;;;;;;;;;11.20;99.90;;;;;;5000085;28;19920;-90
2024/01/02 04:00:19;;;;;;;;;;;11.20;99.90;;;;;;4993950;28;21061;-90
2024/01/02 04:02:44;;;;;;;;;;;11.20;99.90;;;;;;4994909;28;19927;-90
2024/01/02 04:05:10;;;;;;;;;;;11.20;99.90;;;;;;4992565;28;20004;-90
2024/01/02 04:07:36;;;;;;;;;;;11.20;99.90;;;;;;4996691;28;19909;-89
2024/01/02 04:10:02;;;;;;;;;;;11.20;99.90;;;;;;4996598;28;20002;-90
2024/01/02 04:12:27;;;;;;;;;;;11.20;99.90;;;;;;4991477;28;19928;-89
2024/01/02 04:14:53;;;;;;;;;;;11.20;99.90;;;;;;4992258;28;20309;-90
2024/01/02 04:17:18;;;;;;;;;;;11.20;99.90;;;;;;4994710;28;19925;-89
2024/01/02 04:19:43;;;;;;;;;;;11.20;99.90;;;;;;4998356;28;19920;-89
2024/01/02 04:22:09;;;;;;;;;;;11.20;99.90;;;;;;4995521;28;19980;-90
2024/01/02 04:24:35;;;;;;;;;;;11.20;99.90;;;;;;4995920;28;19959;-89
2024/01/02 04:27:00;;;;;;;;;;;11.20;99.90;;;;;;4993420;28;19918;-89
2024/01/02 04:29:26;;;;;;;;;;;11.20;99.90;;;;;;4998778;28;19921;-89
2024/01/02 04:31:51;;;;;;;;;;;11.20;99.90;;;;;;5002535;28;19947;-90
2024/01/02 04:34:17;;;;;;;;;;;11.20;99.90;;;;;;4997848;28;19924;-89
2024/01/02 04:36:43;;;;;;;;;;;11.20;99.90;;;;;;4994134;28;19937;-89
2024/01/02 04:39:08;;;;;;;;;;;11.20;99.90;;;;;;4997748;28;19996;-91
2024/01/02 04:41:34;;;;;;;;;;;11.10;99.90;;;;;;4994637;28;20465;-88
2024/01/02 04:43:59;;;;;;;;;;;11.20;99.90;;;;;;4989723;28;19910;-89
2024/01/02 04:46:27;;;;;;;;;;;11.20;99.90;;;;;;4988864;28;19932;-90
2024/01/02 04:48:52;;;;;;;;;;;11.20;99.90;;;;;;4993626;28;20269;-89
2024/01/02 04:51:18;;;;;;;;;;;11.30;99.90;;;;;;4998680;28;20086;-90
2024/01/02 04:53:43;;;;;;;;;;;11.30;99.90;;;;;;5003669;28;19910;-88
2024/01/02 04:56:09;;;;;;;;;;;11.30;99.90;;;;;;4997317;28;19909;-89
2024/01/02 04:58:34;;;;;;;;;;;11.20;99.90;;;;;;4993032;28;19953;-90
2024/01/02 05:01:00;;;;;;;;;;;11.20;99.90;;;;;;4992663;28;20357;-89
2024/01/02 05:03:26;;;;;;;;;;;11.20;99.90;;;;;;4990072;28;19949;-89
2024/01/02 05:05:51;;;;;;;;;;;11.30;99.90;;;;;;4998622;28;20372;-90
2024/01/02 05:08:17;;;;;;;;;;;11.30;99.90;;;;;;4993218;28;20354;-89
2024/01/02 05:10:42;;;;;;;;;;;11.30;99.90;;;;;;4994811;28;19918;-90
2024/01/02 05:13:08;;;;;;;;;;;11.30;99.90;;;;;;4991103;28;20372;-89
2024/01/02 05:15:33;;;;;;;;;;;11.20;99.90;;;;;;4995292;28;20052;-89
2024/01/02 05:17:59;;;;;;;;;;;11.30;99.90;;;;;;4994839;28;19964;-89
2024/01/02 05:20:24;;;;;;;;;;;11.30;99.90;;;;;;4996859;28;20428;-88
2024/01/02 05:22:50;;;;;;;;;;;11.30;99.90;;;;;;4992649;28;20308;-90
2024/01/02 05:25:15;;;;;;;;;;;11.30;99.90;;;;;;4997392;28;19925;-88
2024/01/02 05:27:41;;;;;;;;;;;11.30;99.90;;;;;;5006380;28;19917;-89
2024/01/02 05:30:07;;;;;;;;;;;11.20;99.90;;;;;;4992467;28;20319;-89
2024/01/02 05:32:32;;;;;;;;;;;11.20;99.90;;;;;;4995277;28;20030;-88
2024/01/02 05:34:58;;;;;;;;;;;11.20;99.90;;;;;;4989672;28;19917;-90
2024/01/02 05:37:23;;;;;;;;;;;11.20;99.90;;;;;;4991121;28;19910;-89
2024/01/02 05:39:49;;;;;;;;;;;11.20;99.90;;;;;;4993062;28;19910;-88
2024/01/02 05:42:14;;;;;;;;;;;11.20;99.90;;;;;;4996432;28;20293;-91
2024/01/02 05:44:40;;;;;;;;;;;11.20;99.90;;;;;;4997059;28;20133;-88
2024/01/02 05:47:05;;;;;;;;;;;11.10;99.90;;;;;;4993273;28;19918;-89
2024/01/02 05:49:31;;;;;;;;;;;11.20;99.90;;;;;;4994959;28;20454;-88
2024/01/02 05:51:57;;;;;;;;;;;11.20;99.90;;;;;;4998625;28;19920;-88
2024/01/02 05:54:22;;;;;;;;;;;11.10;99.90;;;;;;5000685;28;19929;-88
2024/01/02 05:56:48;;;;;;;;;;;11.10;99.90;;;;;;4999213;28;19909;-91
2024/01/02 05:59:13;;;;;;;;;;;11.20;99.90;;;;;;5001135;28;19913;-89
2024/01/02 06:01:39;;;;;;;;;;;11.20;99.90;;;;;;4992839;28;19913;-89
2024/01/02 06:04:04;;;;;;;;;;;11.10;99.90;;;;;;4995902;28;19914;-89
2024/01/02 06:06:30;;;;;;;;;;;11.20;99.90;;;;;;4995004;28;20560;-89
2024/01/02 06:08:55;;;;;;;;;;;11.10;99.90;;;;;;4989935;28;19917;-90
2024/01/02 06:11:21;;;;;;;;;;;11.10;99.90;;;;;;4986978;28;19955;-89
2024/01/02 06:13:46;;;;;;;;;;;11.10;99.90;;;;;;5001567;28;19918;-90
2024/01/02 06:16:12;;;;;;;;;;;11.10;99.90;;;;;;4986420;28;20318;-89
2024/01/02 06:18:38;;;;;;;;;;;11.00;99.90;;;;;;4993548;28;19910;-89
2024/01/02 06:21:04;;;;;;;;;;;11.00;99.90;;;;;;4994686;28;19910;-89
2024/01/02 06:23:33;;;;;;;;;;;11.00;99.90;;;;;;4990922;28;19913;-90
2024/01/02 06:25:59;;;;;;;;;;;11.00;99.90;;;;;;4988482;28;19910;-89
2024/01/02 06:28:25;;;;;;;;;;;11.00;99.90;;;;;;4999447;28;19924;-89
2024/01/02 06:30:50;;;;;;;;;;;11.00;99.90;;;;;;5000510;28;19917;-88
2024/01/02 06:33:16;;;;;;;;;;;10.90;99.90;;;;;;4993121;28;19933;-88
2024/01/02 06:35:42;;;;;;;;;;;11.00;99.90;;;;;;4998102;28;20372;-89
2024/01/02 06:38:08;;;;;;;;;;;11.00;99.90;;;;;;4991763;28;20440;-90
2024/01/02 06:40:35;;;;;;;;;;;11.00;99.90;;;;;;5000033;28;20431;-88
2024/01/02 06:43:00;;;;;;;;;;;11.00;99.90;;;;;;4999041;28;19940;-89
2024/01/02 06:45:26;;;;;;;;;;;11.00;99.90;;;;;;4992213;28;20373;-87
2024/01/02 06:47:51;;;;;;;;;;;11.00;99.90;;;;;;4995174;28;19920;-89
2024/01/02 06:50:17;;;;;;;;;;;11.10;99.90;;;;;;4995220;28;20371;-88
2024/01/02 06:52:42;;;;;;;;;;;11.10;99.90;;;;;;4994953;28;19920;-89
2024/01/02 06:55:08;;;;;;;;;;;11.10;99.90;;;;;;4994239;28;19917;-90
2024/01/02 06:57:33;;;;;;;;;;;11.10;99.90;;;;;;4987376;28;19916;-88
2024/01/02 07:00:00;;;;;;;;;;;11.10;99.90;;;;;;4990868;28;19925;-90
2024/01/02 07:02:25;;;;;;;;;;;11.10;99.90;;;;;;4996475;28;19968;-89
2024/01/02 07:04:51;;;;;;;;;;;11.10;99.90;;;;;;4996212;28;19918;-89
2024/01/02 07:07:16;;;;;;;;;;;11.10;99.90;;;;;;4992890;28;19912;-88
2024/01/02 07:09:42;;;;;;;;;;;11.10;99.90;;;;;;4988023;28;19913;-88
2024/01/02 07:12:07;;;;;;;;;;;11.10;99.90;;;;;;4983282;28;19921;-91
2024/01/02 07:14:33;;;;;;;;;;;11.10;99.90;;;;;;4991199;28;19917;-90
2024/01/02 07:17:02;;;;;;;;;;;11.10;99.90;;;;;;4991465;28;19917;-90
2024/01/02 07:19:27;;;;;;;;;;;11.10;99.90;;;;;;4994815;28;19909;-89
2024/01/02 07:21:53;;;;;;;;;;;11.10;99.90;;;;;;4995277;28;19919;-90
2024/01/02 07:24:18;;;;;;;;;;;11.10;99.90;;;;;;4992609;28;19920;-89
2024/01/02 07:26:44;;;;;;;;;;;11.00;99.90;;;;;;4995261;28;19972;-88
2024/01/02 07:29:10;;;;;;;;;;;11.00;99.90;;;;;;4995181;28;19996;-90
2024/01/02 07:31:35;;;;;;;;;;;11.10;99.90;;;;;;5002861;28;19916;-89
2024/01/02 07:34:03;;;;;;;;;;;11.10;99.90;;;;;;4994123;28;19928;-91
2024/01/02 07:36:28;;;;;;;;;;;11.00;99.90;;;;;;4999366;28;19936;-89
2024/01/02 07:38:55;;;;;;;;;;;11.00;99.90;;;;;;4994032;28;19927;-89
2024/01/02 07:41:20;;;;;;;;;;;11.00;99.90;;;;;;4992919;28;19939;-89
2024/01/02 07:43:46;;;;;;;;;;;11.00;99.90;;;;;;4998531;28;20361;-90
2024/01/02 07:46:11;;;;;;;;;;;11.00;99.90;;;;;;4996469;28;19959;-92
2024/01/02 07:48:37;;;;;;;;;;;11.00;99.90;;;;;;4995853;28;19924;-89
2024/01/02 07:51:02;;;;;;;;;;;11.00;99.90;;;;;;4997682;28;19937;-88
2024/01/02 07:53:28;;;;;;;;;;;11.00;99.90;;;;;;4996614;28;20011;-90
2024/01/02 07:55:53;;;;;;;;;;;11.00;99.90;;;;;;4996549;28;19918;-90
2024/01/02 07:58:19;;;;;;;;;;;11.00;99.90;;;;;;4994457;28;19917;-89
2024/01/02 08:00:46;;;;;;;;;;;11.00;99.90;;;;;;4994087;28;19920;-90
2024/01/02 08:03:11;;;;;;;;;;;11.00;99.90;;;;;;4995539;28;19910;-88
2024/01/02 08:05:37;;;;;;;;;;;11.00;99.90;;;;;;4996125;28;19964;-90
2024/01/02 08:08:03;;;;;;;;;;;11.00;99.90;;;;;;4995769;28;20064;-89
2024/01/02 08:10:29;;;;;;;;;;;11.00;99.90;;;;;;4993047;28;20392;-89
2024/01/02 08:12:54;;;;;;;;;;;11.00;99.90;;;;;;4992484;28;19920;-90
2024/01/02 08:15:20;;;;;;;;;;;11.00;99.90;;;;;;5002008;28;19924;-89
2024/01/02 08:17:46;;;;;;;;;;;11.00;99.90;;;;;;4993467;28;19918;-90
2024/01/02 08:20:11;;;;;;;;;;;11.00;99.90;;;;;;4992936;28;19914;-91
2024/01/02 08:22:37;;;;;;;;;;;11.00;99.90;;;;;;4994356;28;19971;-89
2024/01/02 09:28:58;;;;;;;;;;;11.90;99.90;;;;;;4988090;28;19999;-88
2024/01/02 09:31:26;;;;;;;;;;;11.90;99.90;;;;;;4986622;28;19950;-89
2024/01/02 09:33:52;;;;;;;;;;;12.00;99.90;;;;;;4987643;28;20280;-89
2024/01/02 09:36:18;;;;;;;;;;;12.00;99.90;;;;;;5006495;28;19921;-90
2024/01/02 09:38:44;;;;;;;;;;;12.10;99.90;;;;;;5004934;28;19910;-89
2024/01/02 09:41:15;;;;;;;;;;;12.00;99.90;;;;;;4999923;28;20004;-89
2024/01/02 09:43:49;;;;;;;;;;;12.10;99.90;;;;;;4995665;28;19917;-88
2024/01/02 09:46:31;;;;;;;;;;;12.10;99.90;;;;;;5003372;28;20267;-92
2024/01/02 09:48:56;;;;;;;;;;;12.20;99.90;;;;;;4997377;28;19913;-89
2024/01/02 09:51:45;;;;;;;;;;;12.20;99.90;;;;;;5002895;28;19920;-92
2024/01/02 09:54:11;;;;;;;;;;;12.20;99.90;;;;;;4995563;28;19924;-87
2024/01/02 09:56:43;;;;;;;;;;;12.20;99.90;;;;;;5005237;28;19916;-87
2024/01/02 09:59:28;;;;;;;;;;;12.30;99.90;;;;;;4998024;28;19921;-90
2024/01/02 10:02:13;;;;;;;;;;;12.20;99.90;;;;;;4998212;28;20388;-89
2024/01/02 10:04:52;;;;;;;;;;;12.20;99.90;;;;;;4996986;28;20374;-86
2024/01/02 10:07:29;;;;;;;;;;;12.20;99.90;;;;;;5006706;28;20369;-87
2024/01/02 10:10:03;;;;;;;;;;;12.20;99.90;;;;;;4999419;28;19924;-89
2024/01/02 10:12:37;;;;;;;;;;;12.20;99.90;;;;;;4996855;28;19961;-89
2024/01/02 10:15:22;;;;;;;;;;;12.20;99.90;;;;;;5002889;28;19917;-89
2024/01/02 10:17:56;;;;;;;;;;;12.20;99.90;;;;;;5002932;28;19913;-89
2024/01/02 10:20:42;;;;;;;;;;;12.30;99.90;;;;;;5002832;28;20594;-89
2024/01/02 10:23:27;;;;;;;;;;;12.30;99.90;;;;;;4998604;28;19944;-88
2024/01/02 10:25:54;;;;;;;;;;;12.30;99.90;;;;;;5003995;28;19921;-90
2024/01/02 10:28:25;;;;;;;;;;;12.30;99.90;;;;;;5006732;28;19933;-88
2024/01/02 10:30:54;;;;;;;;;;;12.30;99.90;;;;;;5011168;28;19902;-88
2024/01/02 10:33:20;;;;;;;;;;;12.30;99.90;;;;;;5030886;28;19961;-90
2024/01/02 10:35:51;;;;;;;;;;;12.30;99.90;;;;;;5011753;28;19918;-88
2024/01/02 10:38:34;;;;;;;;;;;12.30;99.90;;;;;;5005906;28;19910;-88
2024/01/02 10:41:07;;;;;;;;;;;12.30;99.90;;;;;;5002346;28;20342;-91
2024/01/02 10:43:41;;;;;;;;;;;12.30;99.90;;;;;;4998673;28;20369;-91
2024/01/02 10:46:06;;;;;;;;;;;12.20;99.90;;;;;;4996278;28;19912;-88
2024/01/02 10:48:44;;;;;;;;;;;12.20;99.90;;;;;;5000196;28;19909;-89
2024/01/02 10:51:17;;;;;;;;;;;12.20;99.90;;;;;;5003214;28;19909;-89
2024/01/02 10:53:48;;;;;;;;;;;12.20;99.90;;;;;;5007186;28;19956;-91
2024/01/02 10:56:37;;;;;;;;;;;12.10;99.90;;;;;;5003627;28;19917;-88
2024/01/02 10:59:10;;;;;;;;;;;12.10;99.90;;;;;;4996058;28;19914;-91
2024/01/02 11:01:37;;;;;;;;;;;12.10;99.90;;;;;;5005844;28;20000;-91
2024/01/02 11:04:12;;;;;;;;;;;12.10;99.90;;;;;;5008158;28;19924;-89
2024/01/02 11:06:37;;;;;;;;;;;12.10;99.90;;;;;;5008938;28;19921;-90
2024/01/02 11:09:07;;;;;;;;;;;12.10;99.90;;;;;;4996443;28;19933;-89
2024/01/02 11:11:35;;;;;;;;;;;12.00;99.90;;;;;;5003802;28;19948;-89
2024/01/02 11:14:02;;;;;;;;;;;12.10;99.90;;;;;;5006343;28;19956;-88
2024/01/02 11:16:31;;;;;;;;;;;12.00;99.90;;;;;;5006168;28;19924;-89
2024/01/02 11:18:58;;;;;;;;;;;12.00;99.90;;;;;;5005145;28;19909;-91
2024/01/02 11:21:38;;;;;;;;;;;12.00;99.90;;;;;;5008709;28;19923;-90
2024/01/02 11:24:08;;;;;;;;;;;12.00;99.90;;;;;;5005086;28;20012;-89
2024/01/02 11:26:40;;;;;;;;;;;11.90;99.90;;;;;;5008757;28;20038;-91
2024/01/02 11:29:22;;;;;;;;;;;11.90;99.90;;;;;;5023278;28;20408;-89
2024/01/02 11:31:49;;;;;;;;;;;11.90;99.90;;;;;;5031145;28;19938;-92
2024/01/02 11:34:35;;;;;;;;;;;11.90;99.90;;;;;;5034684;28;19982;-93
2024/01/02 11:37:11;;;;;;;;;;;11.90;99.90;;;;;;5028053;28;19950;-90
2024/01/02 11:39:59;;;;;;;;;;;12.00;99.90;;;;;;5027343;28;19969;-92
2024/01/02 11:42:45;;;;;;;;;;;11.90;99.90;;;;;;5022292;28;19936;-92
2024/01/02 11:45:22;;;;;;;;;;;11.90;99.90;;;;;;5034553;28;20367;-92
2024/01/02 11:48:03;;;;;;;;;;;11.90;99.90;;;;;;5025501;28;19958;-90
2024/01/02 11:50:35;;;;;;;;;;;11.90;99.90;;;;;;5027269;28;19928;-91
2024/01/02 11:53:07;;;;;;;;;;;12.00;99.90;;;;;;5033649;28;19948;-90
2024/01/02 11:55:40;;;;;;;;;;;11.90;99.90;;;;;;5033737;28;19940;-93
2024/01/02 11:58:27;;;;;;;;;;;12.00;99.90;;;;;;5027738;28;19996;-90
2024/01/02 12:00:54;;;;;;;;;;;11.90;99.90;;;;;;5024723;28;19956;-89
2024/01/02 12:03:40;;;;;;;;;;;12.00;99.90;;;;;;5025360;28;20316;-89
2024/01/02 12:06:17;;;;;;;;;;;12.00;99.90;;;;;;5023407;28;20435;-90
2024/01/02 12:08:46;;;;;;;;;;;12.00;99.90;;;;;;5026271;28;19956;-92
2024/01/02 12:11:27;;;;;;;;;;;12.00;99.90;;;;;;5028330;28;19948;-92
2024/01/02 12:14:20;;;;;;;;;;;12.10;99.90;;;;;;5022643;28;19942;-89
2024/01/02 12:16:50;;;;;;;;;;;12.10;99.90;;;;;;5026910;28;19929;-92
2024/01/02 12:19:22;;;;;;;;;;;12.10;99.90;;;;;;5034351;28;19924;-90
2024/01/02 12:21:52;;;;;;;;;;;12.20;99.90;;;;;;5022924;28;19978;-93
2024/01/02 12:24:28;;;;;;;;;;;12.20;99.90;;;;;;5024467;28;19922;-92
2024/01/02 12:27:01;;;;;;;;;;;12.20;99.90;;;;;;5042510;28;19943;-93
2024/01/02 12:29:48;;;;;;;;;;;12.30;99.90;;;;;;5028357;28;19932;-90
2024/01/02 12:32:21;;;;;;;;;;;12.20;99.90;;;;;;5024695;28;19944;-92
2024/01/02 12:34:47;;;;;;;;;;;12.30;99.90;;;;;;5022817;28;20105;-89
2024/01/02 12:37:32;;;;;;;;;;;12.30;99.90;;;;;;5028718;28;19945;-90
2024/01/02 12:40:02;;;;;;;;;;;12.40;99.90;;;;;;5022306;28;19917;-91
2024/01/02 12:42:39;;;;;;;;;;;12.40;99.90;;;;;;5026141;28;20013;-94
2024/01/02 12:45:13;;;;;;;;;;;12.40;99.90;;;;;;5021141;28;20077;-90
2024/01/02 12:47:44;;;;;;;;;;;12.40;99.90;;;;;;5022990;28;19944;-92
2024/01/02 12:50:14;;;;;;;;;;;12.40;99.90;;;;;;5029575;28;19979;-93
2024/01/02 12:52:51;;;;;;;;;;;12.40;99.90;;;;;;5022439;28;20552;-91
2024/01/02 12:55:18;;;;;;;;;;;12.50;99.90;;;;;;5021533;28;19973;-88
2024/01/02 12:57:52;;;;;;;;;;;12.40;99.90;;;;;;5024119;28;19943;-90
2024/01/02 13:00:20;;;;;;;;;;;12.50;99.90;;;;;;5021541;28;19909;-89
2024/01/02 13:02:47;;;;;;;;;;;12.50;99.90;;;;;;5024239;28;19913;-90
2024/01/02 13:05:23;;;;;;;;;;;12.50;99.90;;;;;;5021127;28;19948;-90
2024/01/02 13:07:48;;;;;;;;;;;12.60;99.90;;;;;;5022733;28;20004;-90
2024/01/02 13:10:23;;;;;;;;;;;12.50;99.90;;;;;;5023735;28;20325;-91
2024/01/02 13:12:50;;;;;;;;;;;12.50;99.90;;;;;;5023581;28;19920;-90
2024/01/02 13:15:17;;;;;;;;;;;12.50;99.90;;;;;;5030353;28;20357;-91
2024/01/02 13:17:43;;;;;;;;;;;12.60;99.90;;;;;;5025071;28;19905;-86
2024/01/02 13:20:10;;;;;;;;;;;12.60;99.90;;;;;;5025674;28;20021;-91
2024/01/02 13:22:39;;;;;;;;;;;12.50;99.90;;;;;;5029254;28;19921;-91
2024/01/02 13:25:13;;;;;;;;;;;12.50;99.90;;;;;;5026663;28;19946;-91
2024/01/02 13:27:39;;;;;;;;;;;12.50;99.90;;;;;;5023570;28;19937;-91
2024/01/02 13:30:05;;;;;;;;;;;12.50;99.90;;;;;;5025157;28;20399;-90
2024/01/02 13:35:18;;;;;;;;;;;12.50;99.90;;;;;;5016571;28;19944;-90
2024/01/02 13:37:44;;;;;;;;;;;12.50;99.90;;;;;;5022336;28;19920;-91
2024/01/02 13:40:18;;;;;;;;;;;12.40;99.90;;;;;;5023879;28;19917;-89
2024/01/02 13:42:58;;;;;;;;;;;12.40;99.90;;;;;;5024523;28;19917;-92
2024/01/02 13:45:25;;;;;;;;;;;12.40;99.90;;;;;;5022112;28;19917;-89
2024/01/02 13:47:56;;;;;;;;;;;12.40;99.90;;;;;;5029898;28;19982;-89
2024/01/02 13:50:31;;;;;;;;;;;12.40;99.90;;;;;;5023540;28;19919;-89
2024/01/02 13:53:06;;;;;;;;;;;12.40;99.90;;;;;;5024727;28;19939;-88
2024/01/02 13:55:39;;;;;;;;;;;12.40;99.90;;;;;;5023539;28;19910;-87
2024/01/02 13:58:08;;;;;;;;;;;12.30;99.90;;;;;;5021106;28;19920;-90
2024/01/02 14:00:36;;;;;;;;;;;12.30;99.90;;;;;;5024030;28;19909;-88
2024/01/02 14:03:05;;;;;;;;;;;12.40;99.90;;;;;;5024128;28;19973;-91
2024/01/02 14:05:31;;;;;;;;;;;12.30;99.90;;;;;;5021380;28;20059;-89
2024/01/02 14:08:01;;;;;;;;;;;12.20;99.90;;;;;;5025186;28;19909;-90
2024/01/02 14:10:26;;;;;;;;;;;12.20;99.90;;;;;;5034211;28;19915;-90
2024/01/02 14:12:52;;;;;;;;;;;12.20;99.90;;;;;;5028047;28;19960;-91
2024/01/02 14:15:23;;;;;;;;;;;12.20;99.90;;;;;;5024227;28;20306;-89
2024/01/02 14:18:04;;;;;;;;;;;12.10;99.90;;;;;;5018464;28;19959;-92
2024/01/02 14:20:34;;;;;;;;;;;12.10;99.90;;;;;;5027591;28;19974;-86
2024/01/02 14:23:00;;;;;;;;;;;12.00;99.90;;;;;;5047224;23;20378;-88
2024/01/02 14:25:39;;;;;;;;;;;12.00;99.90;;;;;;5038054;28;20278;-89
2024/01/02 14:28:10;;;;;;;;;;;11.90;99.90;;;;;;5022196;28;20361;-88
2024/01/02 14:30:37;;;;;;;;;;;11.80;99.90;;;;;;5026390;28;20568;-88
2024/01/02 14:33:22;;;;;;;;;;;11.80;99.90;;;;;;5025153;28;20391;-88
2024/01/02 14:35:49;;;;;;;;;;;11.80;99.90;;;;;;5027134;28;19964;-89
2024/01/02 14:38:25;;;;;;;;;;;11.80;99.90;;;;;;5032278;28;20316;-89
2024/01/02 14:40:52;;;;;;;;;;;11.70;99.90;;;;;;5031455;28;19962;-88
2024/01/02 14:43:22;;;;;;;;;;;11.70;99.90;;;;;;5037769;28;19920;-88
2024/01/02 14:46:09;;;;;;;;;;;11.70;99.90;;;;;;5037363;28;19982;-88
2024/01/02 14:48:54;;;;;;;;;;;11.80;99.90;;;;;;5034729;28;19971;-88
2024/01/02 14:51:21;;;;;;;;;;;11.80;99.90;;;;;;5025326;28;19919;-89
2024/01/02 14:54:06;;;;;;;;;;;11.80;99.90;;;;;;5035331;28;19915;-88
2024/01/02 14:56:39;;;;;;;;;;;11.80;99.90;;;;;;5028982;28;19909;-89
2024/01/02 14:59:17;;;;;;;;;;;11.70;99.90;;;;;;5031873;28;19944;-88
2024/01/02 15:01:42;;;;;;;;;;;11.80;99.90;;;;;;5031393;28;20015;-88
2024/01/02 15:04:20;;;;;;;;;;;11.80;99.90;;;;;;5032732;28;19913;-88
2024/01/02 15:06:47;;;;;;;;;;;11.80;99.90;;;;;;5034933;28;19938;-87
2024/01/02 15:09:19;;;;;;;;;;;11.70;99.90;;;;;;5036768;28;19924;-88
2024/01/02 15:12:01;;;;;;;;;;;11.70;99.90;;;;;;5036476;28;19961;-89
2024/01/02 15:14:33;;;;;;;;;;;11.60;99.90;;;;;;5031719;28;19917;-88
2024/01/02 15:17:00;;;;;;;;;;;11.60;99.90;;;;;;5036207;28;19917;-87
2024/01/02 15:19:45;;;;;;;;;;;11.60;99.90;;;;;;5027678;28;19981;-87
2024/01/02 15:22:33;;;;;;;;;;;11.60;99.90;;;;;;5035720;28;19936;-89
2024/01/02 15:25:06;;;;;;;;;;;11.60;99.90;;;;;;5033736;28;19996;-89
2024/01/02 15:27:32;;;;;;;;;;;11.50;99.90;;;;;;5030016;28;19970;-87
2024/01/02 15:30:02;;;;;;;;;;;11.60;99.90;;;;;;5034786;28;20206;-86
2024/01/02 15:32:33;;;;;;;;;;;11.70;99.90;;;;;;5029164;28;19917;-88